sensor_id;sensor_type;location;lat;lon;timestamp;pressure;altitude;pressure_sealevel;temperature;humidity
50672;BME280;46021;55.882;37.654;2023-03-13T00:00:50;98082.63;;;-6.20;73.94
50672;BME280;46021;55.882;37.654;2023-03-13T00:03:18;98093.56;;;-6.29;74.11
50672;BME280;46021;55.882;37.654;2023-03-13T00:05:45;98080.88;;;-6.26;74.80
50672;BME280;46021;55.882;37.654;2023-03-13T00:08:13;98094.50;;;-6.19;74.19
50672;BME280;46021;55.882;37.654;2023-03-13T00:10:41;98108.00;;;-6.19;74.11
50672;BME280;46021;55.882;37.654;2023-03-13T00:13:08;98100.38;;;-6.20;73.91
50672;BME280;46021;55.882;37.654;2023-03-13T00:15:35;98113.91;;;-6.21;73.93
50672;BME280;46021;55.882;37.654;2023-03-13T00:18:03;98107.91;;;-6.28;74.61
50672;BME280;46021;55.882;37.654;2023-03-13T00:20:30;98115.56;;;-6.25;74.06
50672;BME280;46021;55.882;37.654;2023-03-13T00:22:57;98118.13;;;-6.20;74.48
50672;BME280;46021;55.882;37.654;2023-03-13T00:25:26;98117.25;;;-6.25;73.93
50672;BME280;46021;55.882;37.654;2023-03-13T00:27:53;98109.66;;;-6.25;74.34
50672;BME280;46021;55.882;37.654;2023-03-13T00:30:20;98117.28;;;-6.22;74.39
50672;BME280;46021;55.882;37.654;2023-03-13T00:32:47;98121.44;;;-6.28;73.21
50672;BME280;46021;55.882;37.654;2023-03-13T00:35:15;98130.72;;;-6.30;73.69
50672;BME280;46021;55.882;37.654;2023-03-13T00:37:42;98140.03;;;-6.29;73.60
50672;BME280;46021;55.882;37.654;2023-03-13T00:40:10;98141.72;;;-6.29;73.62
50672;BME280;46021;55.882;37.654;2023-03-13T00:42:39;98145.97;;;-6.27;73.78
50672;BME280;46021;55.882;37.654;2023-03-13T00:45:07;98146.84;;;-6.24;73.17
50672;BME280;46021;55.882;37.654;2023-03-13T00:47:34;98147.59;;;-6.35;73.33
50672;BME280;46021;55.882;37.654;2023-03-13T00:50:02;98151.81;;;-6.34;73.25
50672;BME280;46021;55.882;37.654;2023-03-13T00:52:29;98167.09;;;-6.29;73.35
50672;BME280;46021;55.882;37.654;2023-03-13T00:54:56;98168.00;;;-6.22;73.36
50672;BME280;46021;55.882;37.654;2023-03-13T00:57:23;98165.47;;;-6.21;73.00
50672;BME280;46021;55.882;37.654;2023-03-13T00:59:52;98169.72;;;-6.18;72.94
50672;BME280;46021;55.882;37.654;2023-03-13T01:02:19;98175.66;;;-6.16;72.99
50672;BME280;46021;55.882;37.654;2023-03-13T01:04:46;98188.31;;;-6.19;72.77
50672;BME280;46021;55.882;37.654;2023-03-13T01:07:13;98180.78;;;-6.12;72.49
50672;BME280;46021;55.882;37.654;2023-03-13T01:09:40;98195.19;;;-6.09;72.73
50672;BME280;46021;55.882;37.654;2023-03-13T01:12:08;98195.94;;;-6.18;72.13
50672;BME280;46021;55.882;37.654;2023-03-13T01:14:35;98195.88;;;-6.22;71.91
50672;BME280;46021;55.882;37.654;2023-03-13T01:17:04;98201.88;;;-6.17;72.09
50672;BME280;46021;55.882;37.654;2023-03-13T01:19:31;98202.66;;;-6.23;71.69
50672;BME280;46021;55.882;37.654;2023-03-13T01:21:58;98216.25;;;-6.15;72.49
50672;BME280;46021;55.882;37.654;2023-03-13T01:24:25;98209.44;;;-6.20;71.63
50672;BME280;46021;55.882;37.654;2023-03-13T01:26:52;98223.88;;;-6.13;73.15
50672;BME280;46021;55.882;37.654;2023-03-13T01:29:19;98235.63;;;-6.21;72.41
50672;BME280;46021;55.882;37.654;2023-03-13T01:31:47;98234.78;;;-6.23;72.06
50672;BME280;46021;55.882;37.654;2023-03-13T01:34:15;98233.84;;;-6.29;72.33
50672;BME280;46021;55.882;37.654;2023-03-13T01:36:42;98241.44;;;-6.30;72.26
50672;BME280;46021;55.882;37.654;2023-03-13T01:39:11;98242.16;;;-6.40;72.49
50672;BME280;46021;55.882;37.654;2023-03-13T01:41:38;98245.56;;;-6.40;72.71
50672;BME280;46021;55.882;37.654;2023-03-13T01:44:19;98263.22;;;-6.46;72.72
50672;BME280;46021;55.882;37.654;2023-03-13T01:46:47;98259.91;;;-6.40;72.58
50672;BME280;46021;55.882;37.654;2023-03-13T01:49:21;98269.22;;;-6.39;72.86
50672;BME280;46021;55.882;37.654;2023-03-13T01:52:04;98273.41;;;-6.41;72.64
50672;BME280;46021;55.882;37.654;2023-03-13T01:54:40;98277.56;;;-6.48;72.68
50672;BME280;46021;55.882;37.654;2023-03-13T01:57:17;98281.84;;;-6.44;73.01
50672;BME280;46021;55.882;37.654;2023-03-13T01:59:49;98292.78;;;-6.47;73.44
50672;BME280;46021;55.882;37.654;2023-03-13T02:02:18;98285.91;;;-6.55;73.55
50672;BME280;46021;55.882;37.654;2023-03-13T02:04:49;98296.97;;;-6.50;73.70
50672;BME280;46021;55.882;37.654;2023-03-13T02:07:22;98307.88;;;-6.54;73.89
50672;BME280;46021;55.882;37.654;2023-03-13T02:09:53;98299.28;;;-6.66;73.81
50672;BME280;46021;55.882;37.654;2023-03-13T02:12:26;98312.81;;;-6.63;74.47
50672;BME280;46021;55.882;37.654;2023-03-13T02:14:56;98324.53;;;-6.72;74.86
50672;BME280;46021;55.882;37.654;2023-03-13T02:17:25;98321.13;;;-6.74;74.63
50672;BME280;46021;55.882;37.654;2023-03-13T02:19:54;98327.84;;;-6.76;74.58
50672;BME280;46021;55.882;37.654;2023-03-13T02:22:25;98329.44;;;-6.84;74.74
50672;BME280;46021;55.882;37.654;2023-03-13T02:24:58;98336.25;;;-6.80;74.37
50672;BME280;46021;55.882;37.654;2023-03-13T02:27:28;98337.94;;;-6.79;75.54
50672;BME280;46021;55.882;37.654;2023-03-13T02:29:56;98349.66;;;-6.86;75.15
50672;BME280;46021;55.882;37.654;2023-03-13T02:32:24;98351.34;;;-6.86;74.89
50672;BME280;46021;55.882;37.654;2023-03-13T02:34:53;98367.41;;;-6.86;75.34
50672;BME280;46021;55.882;37.654;2023-03-13T02:37:23;98364.78;;;-6.92;75.88
50672;BME280;46021;55.882;37.654;2023-03-13T02:39:53;98365.56;;;-6.94;75.56
50672;BME280;46021;55.882;37.654;2023-03-13T02:42:23;98368.97;;;-6.92;75.52
50672;BME280;46021;55.882;37.654;2023-03-13T02:44:52;98373.13;;;-6.97;75.29
50672;BME280;46021;55.882;37.654;2023-03-13T02:47:20;98373.09;;;-6.99;75.97
50672;BME280;46021;55.882;37.654;2023-03-13T02:49:48;98379.06;;;-6.94;76.69
50672;BME280;46021;55.882;37.654;2023-03-13T02:52:18;98384.78;;;-7.06;76.06
50672;BME280;46021;55.882;37.654;2023-03-13T02:54:49;98389.06;;;-7.03;76.08
50672;BME280;46021;55.882;37.654;2023-03-13T02:57:19;98395.88;;;-6.99;76.69
50672;BME280;46021;55.882;37.654;2023-03-13T02:59:46;98402.50;;;-7.06;76.69
50672;BME280;46021;55.882;37.654;2023-03-13T03:02:15;98399.88;;;-7.12;76.85
50672;BME280;46021;55.882;37.654;2023-03-13T03:04:42;98410.00;;;-7.12;76.98
50672;BME280;46021;55.882;37.654;2023-03-13T03:07:10;98414.16;;;-7.15;77.09
50672;BME280;46021;55.882;37.654;2023-03-13T03:09:37;98413.34;;;-7.13;76.79
50672;BME280;46021;55.882;37.654;2023-03-13T03:12:09;98416.72;;;-7.14;76.63
50672;BME280;46021;55.882;37.654;2023-03-13T03:14:37;98420.19;;;-7.09;76.22
50672;BME280;46021;55.882;37.654;2023-03-13T03:17:05;98426.00;;;-7.14;76.58
50672;BME280;46021;55.882;37.654;2023-03-13T03:19:33;98434.41;;;-7.15;77.38
50672;BME280;46021;55.882;37.654;2023-03-13T03:22:00;98442.72;;;-7.22;76.36
50672;BME280;46021;55.882;37.654;2023-03-13T03:26:55;98442.53;;;-7.32;76.31
50672;BME280;46021;55.882;37.654;2023-03-13T03:29:27;98450.28;;;-7.24;76.27
50672;BME280;46021;55.882;37.654;2023-03-13T03:31:56;98455.22;;;-7.30;77.23
50672;BME280;46021;55.882;37.654;2023-03-13T03:34:25;98466.28;;;-7.27;77.33
50672;BME280;46021;55.882;37.654;2023-03-13T03:36:55;98466.28;;;-7.27;77.28
50672;BME280;46021;55.882;37.654;2023-03-13T03:39:23;98468.66;;;-7.34;77.78
50672;BME280;46021;55.882;37.654;2023-03-13T03:41:50;98476.22;;;-7.36;76.74
50672;BME280;46021;55.882;37.654;2023-03-13T03:46:52;98477.06;;;-7.37;76.39
50672;BME280;46021;55.882;37.654;2023-03-13T03:49:20;98482.00;;;-7.41;76.76
50672;BME280;46021;55.882;37.654;2023-03-13T03:51:48;98483.78;;;-7.37;76.32
50672;BME280;46021;55.882;37.654;2023-03-13T03:54:21;98481.25;;;-7.39;76.66
50672;BME280;46021;55.882;37.654;2023-03-13T03:56:48;98485.44;;;-7.39;77.34
50672;BME280;46021;55.882;37.654;2023-03-13T03:59:15;98496.44;;;-7.39;77.02
50672;BME280;46021;55.882;37.654;2023-03-13T04:02:03;98502.97;;;-7.47;77.02
50672;BME280;46021;55.882;37.654;2023-03-13T04:04:31;98493.78;;;-7.43;77.51
50672;BME280;46021;55.882;37.654;2023-03-13T04:07:03;98500.38;;;-7.52;77.10
50672;BME280;46021;55.882;37.654;2023-03-13T04:09:33;98519.00;;;-7.47;77.03
50672;BME280;46021;55.882;37.654;2023-03-13T04:12:03;98514.78;;;-7.48;77.56
50672;BME280;46021;55.882;37.654;2023-03-13T04:14:34;98517.59;;;-7.34;76.74
50672;BME280;46021;55.882;37.654;2023-03-13T04:17:04;98528.72;;;-7.27;77.09
50672;BME280;46021;55.882;37.654;2023-03-13T04:19:31;98528.94;;;-7.16;76.69
50672;BME280;46021;55.882;37.654;2023-03-13T04:21:59;98523.47;;;-6.92;76.79
50672;BME280;46021;55.882;37.654;2023-03-13T04:24:26;98516.22;;;-6.74;76.64
50672;BME280;46021;55.882;37.654;2023-03-13T04:26:57;98528.97;;;-6.71;75.37
50672;BME280;46021;55.882;37.654;2023-03-13T04:29:25;98538.19;;;-6.74;75.65
50672;BME280;46021;55.882;37.654;2023-03-13T04:32:08;98532.50;;;-6.62;74.93
50672;BME280;46021;55.882;37.654;2023-03-13T04:35:07;98540.13;;;-6.12;76.23
50672;BME280;46021;55.882;37.654;2023-03-13T04:37:55;98535.63;;;-5.72;75.18
50672;BME280;46021;55.882;37.654;2023-03-13T04:40:33;98551.91;;;-5.56;73.56
50672;BME280;46021;55.882;37.654;2023-03-13T04:43:02;98559.06;;;-5.28;74.28
50672;BME280;46021;55.882;37.654;2023-03-13T04:46:04;98563.88;;;-4.83;73.57
50672;BME280;46021;55.882;37.654;2023-03-13T04:48:49;98567.91;;;-4.18;74.45
50672;BME280;46021;55.882;37.654;2023-03-13T04:51:37;98575.97;;;-3.69;73.78
50672;BME280;46021;55.882;37.654;2023-03-13T04:54:39;98576.47;;;-2.80;74.55
50672;BME280;46021;55.882;37.654;2023-03-13T04:57:20;98576.66;;;-2.07;75.09
50672;BME280;46021;55.882;37.654;2023-03-13T05:00:10;98590.25;;;-1.59;74.12
50672;BME280;46021;55.882;37.654;2023-03-13T05:02:50;98596.09;;;-0.83;76.44
50672;BME280;46021;55.882;37.654;2023-03-13T05:08:31;98597.69;;;-0.59;71.87
50672;BME280;46021;55.882;37.654;2023-03-13T05:11:10;98588.78;;;0.04;71.86
50672;BME280;46021;55.882;37.654;2023-03-13T05:13:57;98597.28;;;0.12;68.35
50672;BME280;46021;55.882;37.654;2023-03-13T05:16:39;98606.47;;;0.37;63.43
50672;BME280;46021;55.882;37.654;2023-03-13T05:19:28;98619.16;;;0.53;67.62
50672;BME280;46021;55.882;37.654;2023-03-13T05:22:05;98610.41;;;0.75;69.71
50672;BME280;46021;55.882;37.654;2023-03-13T05:24:50;98624.22;;;1.44;69.77
50672;BME280;46021;55.882;37.654;2023-03-13T05:27:40;98620.34;;;1.78;67.15
50672;BME280;46021;55.882;37.654;2023-03-13T05:30:26;98632.28;;;0.14;64.08
50672;BME280;46021;55.882;37.654;2023-03-13T05:33:21;98638.84;;;-1.70;66.39
50672;BME280;46021;55.882;37.654;2023-03-13T05:36:04;98639.91;;;-3.29;67.37
50672;BME280;46021;55.882;37.654;2023-03-13T05:38:40;98650.56;;;-3.81;68.90
50672;BME280;46021;55.882;37.654;2023-03-13T05:41:18;98655.31;;;-4.18;69.32
50672;BME280;46021;55.882;37.654;2023-03-13T05:43:55;98651.13;;;-4.84;66.14
50672;BME280;46021;55.882;37.654;2023-03-13T05:46:41;98653.53;;;-4.95;68.02
50672;BME280;46021;55.882;37.654;2023-03-13T05:49:28;98662.66;;;-5.08;67.45
50672;BME280;46021;55.882;37.654;2023-03-13T05:52:10;98659.00;;;-5.27;68.29
50672;BME280;46021;55.882;37.654;2023-03-13T05:54:55;98665.59;;;-5.40;68.46
50672;BME280;46021;55.882;37.654;2023-03-13T05:57:43;98672.13;;;-5.54;68.81
50672;BME280;46021;55.882;37.654;2023-03-13T06:00:22;98674.38;;;-5.73;68.52
50672;BME280;46021;55.882;37.654;2023-03-13T06:03:02;98665.81;;;-5.78;68.73
50672;BME280;46021;55.882;37.654;2023-03-13T06:05:36;98670.75;;;-5.85;70.28
50672;BME280;46021;55.882;37.654;2023-03-13T06:08:10;98686.50;;;-6.05;68.99
50672;BME280;46021;55.882;37.654;2023-03-13T06:10:37;98689.34;;;-5.87;69.53
50672;BME280;46021;55.882;37.654;2023-03-13T06:13:05;98692.72;;;-5.86;69.51
50672;BME280;46021;55.882;37.654;2023-03-13T06:15:37;98689.50;;;-5.77;69.84
50672;BME280;46021;55.882;37.654;2023-03-13T06:18:12;98685.50;;;-5.64;70.39
50672;BME280;46021;55.882;37.654;2023-03-13T06:20:41;98696.38;;;-5.72;69.23
50672;BME280;46021;55.882;37.654;2023-03-13T06:23:08;98704.03;;;-5.70;69.74
50672;BME280;46021;55.882;37.654;2023-03-13T06:25:35;98683.69;;;-5.72;69.02
50672;BME280;46021;55.882;37.654;2023-03-13T06:28:03;98704.09;;;-5.67;69.26
50672;BME280;46021;55.882;37.654;2023-03-13T06:30:30;98706.81;;;-5.55;70.15
50672;BME280;46021;55.882;37.654;2023-03-13T06:32:57;98708.53;;;-5.54;69.52
50672;BME280;46021;55.882;37.654;2023-03-13T06:35:24;98709.31;;;-5.56;69.01
50672;BME280;46021;55.882;37.654;2023-03-13T06:37:53;98712.00;;;-5.49;69.05
50672;BME280;46021;55.882;37.654;2023-03-13T06:40:20;98717.28;;;-5.36;69.26
50672;BME280;46021;55.882;37.654;2023-03-13T06:42:47;98725.72;;;-5.37;68.11
50672;BME280;46021;55.882;37.654;2023-03-13T06:45:15;98709.41;;;-5.50;68.07
50672;BME280;46021;55.882;37.654;2023-03-13T06:47:42;98716.44;;;-5.37;68.73
50672;BME280;46021;55.882;37.654;2023-03-13T06:50:10;98720.66;;;-5.36;68.72
50672;BME280;46021;55.882;37.654;2023-03-13T06:52:37;98723.97;;;-5.41;68.21
50672;BME280;46021;55.882;37.654;2023-03-13T06:55:07;98720.59;;;-5.39;67.90
50672;BME280;46021;55.882;37.654;2023-03-13T06:57:34;98728.50;;;-5.22;68.78
50672;BME280;46021;55.882;37.654;2023-03-13T07:00:02;98730.34;;;-5.13;68.44
50672;BME280;46021;55.882;37.654;2023-03-13T07:02:31;98731.94;;;-5.18;67.12
50672;BME280;46021;55.882;37.654;2023-03-13T07:04:58;98746.41;;;-5.16;66.30
50672;BME280;46021;55.882;37.654;2023-03-13T07:07:43;98741.47;;;-5.06;66.37
50672;BME280;46021;55.882;37.654;2023-03-13T07:10:12;98750.84;;;-5.02;66.60
50672;BME280;46021;55.882;37.654;2023-03-13T07:12:39;98751.84;;;-4.91;66.13
50672;BME280;46021;55.882;37.654;2023-03-13T07:15:07;98747.78;;;-4.78;66.24
50672;BME280;46021;55.882;37.654;2023-03-13T07:17:34;98757.50;;;-4.51;66.94
50672;BME280;46021;55.882;37.654;2023-03-13T07:20:02;98756.88;;;-4.35;67.48
50672;BME280;46021;55.882;37.654;2023-03-13T07:22:31;98773.91;;;-4.27;65.67
50672;BME280;46021;55.882;37.654;2023-03-13T07:24:59;98765.47;;;-4.25;65.32
50672;BME280;46021;55.882;37.654;2023-03-13T07:27:28;98771.47;;;-4.21;64.32
50672;BME280;46021;55.882;37.654;2023-03-13T07:29:55;98777.63;;;-4.01;63.93
50672;BME280;46021;55.882;37.654;2023-03-13T07:32:22;98781.34;;;-3.74;65.72
50672;BME280;46021;55.882;37.654;2023-03-13T07:34:49;98794.19;;;-3.62;63.84
50672;BME280;46021;55.882;37.654;2023-03-13T07:37:16;98789.25;;;-3.49;64.82
50672;BME280;46021;55.882;37.654;2023-03-13T07:39:43;98800.94;;;-3.67;63.54
50672;BME280;46021;55.882;37.654;2023-03-13T07:42:10;98802.66;;;-3.66;63.72
50672;BME280;46021;55.882;37.654;2023-03-13T07:44:40;98802.78;;;-3.54;63.83
50672;BME280;46021;55.882;37.654;2023-03-13T07:47:08;98806.94;;;-3.62;64.33
50672;BME280;46021;55.882;37.654;2023-03-13T07:49:35;98810.34;;;-3.63;64.12
50672;BME280;46021;55.882;37.654;2023-03-13T07:52:06;98827.16;;;-3.77;63.03
50672;BME280;46021;55.882;37.654;2023-03-13T07:54:33;98814.53;;;-3.68;62.51
50672;BME280;46021;55.882;37.654;2023-03-13T07:57:01;98829.16;;;-3.51;63.52
50672;BME280;46021;55.882;37.654;2023-03-13T07:59:28;98818.16;;;-3.47;64.04
50672;BME280;46021;55.882;37.654;2023-03-13T08:01:57;98827.34;;;-3.60;62.28
50672;BME280;46021;55.882;37.654;2023-03-13T08:04:24;98818.16;;;-3.44;63.58
50672;BME280;46021;55.882;37.654;2023-03-13T08:06:51;98830.94;;;-3.41;63.82
50672;BME280;46021;55.882;37.654;2023-03-13T08:09:19;98822.47;;;-3.37;63.59
50672;BME280;46021;55.882;37.654;2023-03-13T08:11:46;98830.19;;;-3.31;63.79
50672;BME280;46021;55.882;37.654;2023-03-13T08:14:13;98835.16;;;-3.43;62.36
50672;BME280;46021;55.882;37.654;2023-03-13T08:16:40;98827.72;;;-3.25;63.07
50672;BME280;46021;55.882;37.654;2023-03-13T08:19:10;98828.75;;;-3.04;64.64
50672;BME280;46021;55.882;37.654;2023-03-13T08:21:37;98832.22;;;-2.96;64.11
50672;BME280;46021;55.882;37.654;2023-03-13T08:24:06;98822.97;;;-2.82;63.90
50672;BME280;46021;55.882;37.654;2023-03-13T08:26:35;98842.66;;;-2.68;63.15
50672;BME280;46021;55.882;37.654;2023-03-13T08:29:05;98820.59;;;-2.57;64.60
50672;BME280;46021;55.882;37.654;2023-03-13T08:31:34;98827.34;;;-2.70;62.67
50672;BME280;46021;55.882;37.654;2023-03-13T08:34:01;98833.25;;;-2.71;62.75
50672;BME280;46021;55.882;37.654;2023-03-13T08:36:31;98835.91;;;-2.57;63.31
50672;BME280;46021;55.882;37.654;2023-03-13T08:39:00;98851.28;;;-2.52;63.65
50672;BME280;46021;55.882;37.654;2023-03-13T08:41:29;98834.19;;;-2.61;63.44
50672;BME280;46021;55.882;37.654;2023-03-13T08:43:58;98844.38;;;-2.61;61.47
50672;BME280;46021;55.882;37.654;2023-03-13T08:46:28;98847.75;;;-2.68;62.66
50672;BME280;46021;55.882;37.654;2023-03-13T08:48:55;98841.22;;;-2.32;63.24
50672;BME280;46021;55.882;37.654;2023-03-13T08:51:24;98851.56;;;-2.05;62.84
50672;BME280;46021;55.882;37.654;2023-03-13T08:56:26;98866.78;;;-2.20;61.70
50672;BME280;46021;55.882;37.654;2023-03-13T08:58:57;98868.69;;;-1.85;62.66
50672;BME280;46021;55.882;37.654;2023-03-13T09:01:26;98864.53;;;-1.57;62.53
50672;BME280;46021;55.882;37.654;2023-03-13T09:03:54;98874.81;;;-1.45;62.49
50672;BME280;46021;55.882;37.654;2023-03-13T09:06:21;98871.41;;;-1.42;62.85
50672;BME280;46021;55.882;37.654;2023-03-13T09:08:48;98898.63;;;-1.53;63.61
50672;BME280;46021;55.882;37.654;2023-03-13T09:11:18;98887.41;;;-1.88;63.33
50672;BME280;46021;55.882;37.654;2023-03-13T09:13:47;98879.09;;;-1.39;65.88
50672;BME280;46021;55.882;37.654;2023-03-13T09:16:16;98875.81;;;-0.53;63.49
50672;BME280;46021;55.882;37.654;2023-03-13T09:18:44;98887.63;;;0.26;62.29
50672;BME280;46021;55.882;37.654;2023-03-13T09:21:13;98879.19;;;0.03;60.72
50672;BME280;46021;55.882;37.654;2023-03-13T09:23:40;98872.41;;;-0.75;60.23
50672;BME280;46021;55.882;37.654;2023-03-13T09:26:08;98889.41;;;-1.11;61.09
50672;BME280;46021;55.882;37.654;2023-03-13T09:31:08;98892.50;;;-1.89;63.15
50672;BME280;46021;55.882;37.654;2023-03-13T09:33:37;98899.16;;;-2.19;65.75
50672;BME280;46021;55.882;37.654;2023-03-13T09:36:04;98903.28;;;-2.35;65.19
50672;BME280;46021;55.882;37.654;2023-03-13T09:38:32;98909.28;;;-2.25;66.82
50672;BME280;46021;55.882;37.654;2023-03-13T09:41:03;98920.44;;;-2.16;66.60
50672;BME280;46021;55.882;37.654;2023-03-13T09:43:38;98915.31;;;-2.20;66.80
50672;BME280;46021;55.882;37.654;2023-03-13T09:46:13;98928.00;;;-2.28;67.25
50672;BME280;46021;55.882;37.654;2023-03-13T09:48:45;98915.25;;;-2.23;68.66
50672;BME280;46021;55.882;37.654;2023-03-13T09:51:17;98928.97;;;-2.10;68.40
50672;BME280;46021;55.882;37.654;2023-03-13T09:53:48;98931.34;;;-2.37;68.67
50672;BME280;46021;55.882;37.654;2023-03-13T09:56:22;98944.97;;;-2.35;69.66
50672;BME280;46021;55.882;37.654;2023-03-13T09:58:54;98939.84;;;-2.38;69.29
50672;BME280;46021;55.882;37.654;2023-03-13T10:01:27;98952.47;;;-2.55;69.83
50672;BME280;46021;55.882;37.654;2023-03-13T10:04:01;98942.28;;;-2.53;69.73
50672;BME280;46021;55.882;37.654;2023-03-13T10:06:34;98942.16;;;-2.68;69.56
50672;BME280;46021;55.882;37.654;2023-03-13T10:17:04;98954.75;;;-2.81;69.38
50672;BME280;46021;55.882;37.654;2023-03-13T10:19:34;98971.59;;;-2.98;68.98
50672;BME280;46021;55.882;37.654;2023-03-13T10:22:10;98971.34;;;-3.18;69.85
50672;BME280;46021;55.882;37.654;2023-03-13T10:24:44;98957.41;;;-3.46;70.50
50672;BME280;46021;55.882;37.654;2023-03-13T10:27:13;98974.75;;;-3.18;70.79
50672;BME280;46021;55.882;37.654;2023-03-13T10:29:41;98970.94;;;-3.50;70.49
50672;BME280;46021;55.882;37.654;2023-03-13T10:32:11;98987.56;;;-3.77;71.81
50672;BME280;46021;55.882;37.654;2023-03-13T10:34:54;98993.56;;;-3.74;73.39
50672;BME280;46021;55.882;37.654;2023-03-13T10:37:24;98987.44;;;-3.86;73.11
50672;BME280;46021;55.882;37.654;2023-03-13T10:39:51;99007.41;;;-4.11;75.09
50672;BME280;46021;55.882;37.654;2023-03-13T10:42:26;98996.31;;;-4.18;76.61
50672;BME280;46021;55.882;37.654;2023-03-13T10:44:56;99003.94;;;-4.16;75.58
50672;BME280;46021;55.882;37.654;2023-03-13T10:47:26;99018.31;;;-4.18;75.35
50672;BME280;46021;55.882;37.654;2023-03-13T10:49:58;99010.69;;;-4.18;75.20
50672;BME280;46021;55.882;37.654;2023-03-13T10:52:32;99014.25;;;-4.10;74.09
50672;BME280;46021;55.882;37.654;2023-03-13T10:55:02;99010.28;;;-3.91;71.95
50672;BME280;46021;55.882;37.654;2023-03-13T10:57:31;99002.13;;;-3.67;72.02
50672;BME280;46021;55.882;37.654;2023-03-13T11:00:03;99011.88;;;-3.37;72.50
50672;BME280;46021;55.882;37.654;2023-03-13T11:02:38;99010.44;;;-3.18;71.01
50672;BME280;46021;55.882;37.654;2023-03-13T11:05:30;99027.53;;;-3.10;69.78
50672;BME280;46021;55.882;37.654;2023-03-13T11:08:10;99034.66;;;-2.82;70.08
50672;BME280;46021;55.882;37.654;2023-03-13T11:13:32;99031.06;;;-2.99;68.62
50672;BME280;46021;55.882;37.654;2023-03-13T11:16:09;99038.31;;;-3.30;69.34
50672;BME280;46021;55.882;37.654;2023-03-13T11:18:49;99044.06;;;-3.45;70.11
50672;BME280;46021;55.882;37.654;2023-03-13T11:21:26;99054.34;;;-3.37;71.59
50672;BME280;46021;55.882;37.654;2023-03-13T11:23:58;99055.88;;;-3.50;71.41
50672;BME280;46021;55.882;37.654;2023-03-13T11:26:33;99057.50;;;-3.54;73.05
50672;BME280;46021;55.882;37.654;2023-03-13T11:29:08;99046.31;;;-3.65;72.63
50672;BME280;46021;55.882;37.654;2023-03-13T11:31:41;99060.97;;;-3.51;73.05
50672;BME280;46021;55.882;37.654;2023-03-13T11:34:15;99081.56;;;-3.35;73.86
50672;BME280;46021;55.882;37.654;2023-03-13T11:36:51;99062.09;;;-3.29;72.45
50672;BME280;46021;55.882;37.654;2023-03-13T11:39:43;99074.06;;;-3.27;71.21
50672;BME280;46021;55.882;37.654;2023-03-13T11:42:47;99074.16;;;-3.18;72.60
50672;BME280;46021;55.882;37.654;2023-03-13T11:45:49;99077.88;;;-2.16;73.42
50672;BME280;46021;55.882;37.654;2023-03-13T11:51:19;99091.59;;;-2.05;69.33
50672;BME280;46021;55.882;37.654;2023-03-13T11:54:09;99087.13;;;-2.30;70.30
50672;BME280;46021;55.882;37.654;2023-03-13T11:56:43;99095.44;;;-2.47;70.08
50672;BME280;46021;55.882;37.654;2023-03-13T11:59:23;99090.09;;;-2.68;70.73
50672;BME280;46021;55.882;37.654;2023-03-13T12:04:29;99092.59;;;-2.71;71.19
50672;BME280;46021;55.882;37.654;2023-03-13T12:07:00;99098.41;;;-2.82;71.14
50672;BME280;46021;55.882;37.654;2023-03-13T12:09:34;99095.47;;;-3.16;73.03
50672;BME280;46021;55.882;37.654;2023-03-13T12:12:14;99113.81;;;-3.37;73.17
50672;BME280;46021;55.882;37.654;2023-03-13T12:14:44;99109.63;;;-3.33;75.28
50672;BME280;46021;55.882;37.654;2023-03-13T12:17:20;99105.19;;;-3.46;75.43
50672;BME280;46021;55.882;37.654;2023-03-13T12:19:51;99120.59;;;-3.40;76.06
50672;BME280;46021;55.882;37.654;2023-03-13T12:22:24;99118.34;;;-3.19;75.19
50672;BME280;46021;55.882;37.654;2023-03-13T12:24:59;99119.44;;;-3.01;74.65
50672;BME280;46021;55.882;37.654;2023-03-13T12:27:32;99126.19;;;-3.03;73.48
50672;BME280;46021;55.882;37.654;2023-03-13T12:30:05;99117.63;;;-3.08;72.09
50672;BME280;46021;55.882;37.654;2023-03-13T12:32:36;99120.31;;;-2.99;70.92
50672;BME280;46021;55.882;37.654;2023-03-13T12:35:08;99124.91;;;-2.73;72.36
50672;BME280;46021;55.882;37.654;2023-03-13T12:37:45;99129.09;;;-2.77;69.82
50672;BME280;46021;55.882;37.654;2023-03-13T12:40:22;99136.97;;;-2.60;67.83
50672;BME280;46021;55.882;37.654;2023-03-13T12:42:56;99132.63;;;-2.67;66.38
50672;BME280;46021;55.882;37.654;2023-03-13T12:45:24;99141.69;;;-2.88;66.07
50672;BME280;46021;55.882;37.654;2023-03-13T12:48:16;99133.03;;;-3.02;64.80
50672;BME280;46021;55.882;37.654;2023-03-13T12:51:02;99150.94;;;-2.96;64.68
50672;BME280;46021;55.882;37.654;2023-03-13T12:53:45;99161.53;;;-3.28;64.14
50672;BME280;46021;55.882;37.654;2023-03-13T12:56:30;99149.75;;;-3.20;63.99
50672;BME280;46021;55.882;37.654;2023-03-13T12:59:02;99159.34;;;-3.03;63.81
50672;BME280;46021;55.882;37.654;2023-03-13T13:01:33;99146.53;;;-2.41;64.36
50672;BME280;46021;55.882;37.654;2023-03-13T13:04:06;99144.78;;;-2.46;62.42
50672;BME280;46021;55.882;37.654;2023-03-13T13:06:56;99149.69;;;-2.62;62.51
50672;BME280;46021;55.882;37.654;2023-03-13T13:09:26;99132.38;;;-2.86;62.28
50672;BME280;46021;55.882;37.654;2023-03-13T13:11:56;99148.06;;;-3.21;61.91
50672;BME280;46021;55.882;37.654;2023-03-13T13:14:55;99145.19;;;-3.41;63.18
50672;BME280;46021;55.882;37.654;2023-03-13T13:17:34;99156.13;;;-3.46;62.72
50672;BME280;46021;55.882;37.654;2023-03-13T13:20:32;99157.94;;;-3.41;62.72
50672;BME280;46021;55.882;37.654;2023-03-13T13:23:22;99168.97;;;-3.42;63.06
50672;BME280;46021;55.882;37.654;2023-03-13T13:25:50;99157.81;;;-3.48;63.03
50672;BME280;46021;55.882;37.654;2023-03-13T13:28:32;99153.81;;;-3.34;62.04
50672;BME280;46021;55.882;37.654;2023-03-13T13:31:00;99157.56;;;-3.09;62.31
50672;BME280;46021;55.882;37.654;2023-03-13T13:33:37;99155.47;;;-2.75;60.85
50672;BME280;46021;55.882;37.654;2023-03-13T13:36:29;99167.59;;;-2.57;58.97
50672;BME280;46021;55.882;37.654;2023-03-13T13:38:57;99153.06;;;-2.64;56.89
50672;BME280;46021;55.882;37.654;2023-03-13T13:41:35;99157.09;;;-2.80;57.38
50672;BME280;46021;55.882;37.654;2023-03-13T13:44:25;99180.44;;;-3.12;58.64
50672;BME280;46021;55.882;37.654;2023-03-13T13:46:54;99176.13;;;-3.19;58.27